createdAt,value
2023-03-05T00:01:41.936Z,11.90
2023-03-05T00:04:13.778Z,12.23
2023-03-05T00:06:42.167Z,11.93
2023-03-05T00:09:10.574Z,12.77
2023-03-05T00:11:39.778Z,11.73
2023-03-05T00:14:08.138Z,12.13
2023-03-05T00:16:36.484Z,11.43
2023-03-05T00:19:06.192Z,12.53
2023-03-05T00:21:36.837Z,11.43
2023-03-05T00:24:07.907Z,11.90
2023-03-05T00:26:39.073Z,12.83
2023-03-05T00:29:08.714Z,12.40
2023-03-05T00:31:38.386Z,12.83
2023-03-05T00:34:09.974Z,11.73
2023-03-05T00:36:43.391Z,12.23
2023-03-05T00:39:12.178Z,12.73
2023-03-05T00:41:40.574Z,11.57
2023-03-05T00:44:09.082Z,12.93
2023-03-05T00:46:37.675Z,12.33
2023-03-05T00:49:07.522Z,12.53
2023-03-05T00:51:36.023Z,13.07
2023-03-05T00:54:04.844Z,13.27
2023-03-05T00:56:33.106Z,13.63
2023-03-05T00:59:01.450Z,12.93
2023-03-05T01:01:30.377Z,13.33
2023-03-05T01:04:00.082Z,12.73
2023-03-05T01:06:30.710Z,11.67
2023-03-05T01:08:59.613Z,12.73
2023-03-05T01:11:27.942Z,12.20
2023-03-05T01:13:56.477Z,12.50
2023-03-05T01:16:24.882Z,13.87
2023-03-05T01:18:53.350Z,14.30
2023-03-05T01:21:22.125Z,13.67
2023-03-05T01:23:51.992Z,12.43
2023-03-05T01:26:20.762Z,13.30
2023-03-05T01:28:49.147Z,13.10
2023-03-05T01:31:17.643Z,14.52
2023-03-05T01:33:46.052Z,15.53
2023-03-05T01:36:17.048Z,15.53
2023-03-05T01:38:46.304Z,14.70
2023-03-05T01:41:17.431Z,13.77
2023-03-05T01:43:46.971Z,13.83
2023-03-05T01:46:36.641Z,13.67
2023-03-05T01:49:16.635Z,14.43
2023-03-05T01:51:51.616Z,15.17
2023-03-05T01:54:22.374Z,13.40
2023-03-05T01:56:55.523Z,14.27
2023-03-05T01:59:25.971Z,12.73
2023-03-05T02:01:57.898Z,12.80
2023-03-05T02:04:33.500Z,13.13
2023-03-05T02:07:02.011Z,13.43
2023-03-05T02:09:30.355Z,14.07
2023-03-05T02:12:00.831Z,14.00
2023-03-05T02:14:29.614Z,13.93
2023-03-05T02:16:57.908Z,14.37
2023-03-05T02:19:26.414Z,14.87
2023-03-05T02:21:56.323Z,13.77
2023-03-05T02:24:37.502Z,14.50
2023-03-05T02:27:07.110Z,15.50
2023-03-05T02:29:38.830Z,14.60
2023-03-05T02:32:08.718Z,14.00
2023-03-05T02:34:37.650Z,14.73
2023-03-05T02:37:09.496Z,15.47
2023-03-05T02:39:39.725Z,14.47
2023-03-05T02:42:08.640Z,13.83
2023-03-05T02:44:36.990Z,15.37
2023-03-05T02:47:06.990Z,14.47
2023-03-05T02:49:35.318Z,14.37
2023-03-05T02:52:03.706Z,14.50
2023-03-05T02:54:33.447Z,14.37
2023-03-05T02:57:01.790Z,14.80
2023-03-05T02:59:30.228Z,13.40
2023-03-05T03:01:58.603Z,14.37
2023-03-05T03:04:27.159Z,13.23
2023-03-05T03:06:55.529Z,13.57
2023-03-05T03:09:23.905Z,15.93
2023-03-05T03:11:53.967Z,14.13
2023-03-05T03:14:23.027Z,15.53
2023-03-05T03:16:51.417Z,13.60
2023-03-05T03:19:19.747Z,16.38
2023-03-05T03:21:50.025Z,15.13
2023-03-05T03:24:18.447Z,14.67
2023-03-05T03:26:46.796Z,16.80
2023-03-05T03:29:16.584Z,15.47
2023-03-05T03:31:45.733Z,14.90
2023-03-05T03:34:15.217Z,14.13
2023-03-05T03:36:43.578Z,14.77
2023-03-05T03:39:12.224Z,14.63
2023-03-05T03:41:43.811Z,14.63
2023-03-05T03:44:12.702Z,16.70
2023-03-05T03:46:44.408Z,16.03
2023-03-05T03:49:17.430Z,15.23
2023-03-05T03:51:46.021Z,14.03
2023-03-05T03:54:15.760Z,17.87
2023-03-05T03:56:44.143Z,16.17
2023-03-05T03:59:13.128Z,15.43
2023-03-05T04:01:43.076Z,16.93
2023-03-05T04:04:12.891Z,15.23
2023-03-05T04:06:41.398Z,16.80
2023-03-05T04:09:09.974Z,14.13
2023-03-05T04:11:38.654Z,16.67
2023-03-05T04:14:07.046Z,16.13
2023-03-05T04:16:35.352Z,15.47
2023-03-05T04:19:05.069Z,15.63
2023-03-05T04:21:33.396Z,15.10
2023-03-05T04:24:01.872Z,15.03
2023-03-05T04:26:30.216Z,15.60
2023-03-05T04:28:58.539Z,17.93
2023-03-05T04:31:26.882Z,16.30
2023-03-05T04:33:55.141Z,16.33
2023-03-05T04:36:24.901Z,17.40
2023-03-05T04:38:53.225Z,16.30
2023-03-05T04:41:21.488Z,16.13
2023-03-05T04:43:49.847Z,16.73
2023-03-05T04:46:18.191Z,16.87
2023-03-05T04:48:46.519Z,17.10
2023-03-05T04:51:14.836Z,16.47
2023-03-05T04:53:44.806Z,16.13
2023-03-05T04:56:13.123Z,15.83
2023-03-05T04:58:41.602Z,16.43
2023-03-05T05:01:10.677Z,16.20
2023-03-05T05:03:38.970Z,15.00
2023-03-05T05:06:07.866Z,14.97
2023-03-05T05:08:37.118Z,16.07
2023-03-05T05:11:09.249Z,16.03
2023-03-05T05:13:37.672Z,14.70
2023-03-05T05:16:08.223Z,15.67
2023-03-05T05:18:36.590Z,16.03
2023-03-05T05:21:10.040Z,16.77
2023-03-05T05:23:38.674Z,16.53
2023-03-05T05:26:09.879Z,14.97
2023-03-05T05:28:38.863Z,16.53
2023-03-05T05:31:10.945Z,17.37
2023-03-05T05:33:40.605Z,16.63
2023-03-05T05:36:14.897Z,16.63
2023-03-05T05:38:43.844Z,15.90
2023-03-05T05:41:15.531Z,17.80
2023-03-05T05:43:44.205Z,17.13
2023-03-05T05:46:15.289Z,18.50
2023-03-05T05:48:43.853Z,18.73
2023-03-05T05:51:14.959Z,19.57
2023-03-05T05:53:44.124Z,19.77
2023-03-05T05:56:14.639Z,17.77
2023-03-05T05:58:43.715Z,18.70
2023-03-05T06:01:16.929Z,17.73
2023-03-05T06:03:45.333Z,17.80
2023-03-05T06:06:15.494Z,18.23
2023-03-05T06:08:44.180Z,17.60
2023-03-05T06:11:14.130Z,19.10
2023-03-05T06:13:42.558Z,18.40
2023-03-05T06:16:13.651Z,17.27
2023-03-05T06:18:42.393Z,17.70
2023-03-05T06:21:13.820Z,18.40
2023-03-05T06:23:42.515Z,18.33
2023-03-05T06:26:14.931Z,15.80
2023-03-05T06:28:43.344Z,17.27
2023-03-05T06:31:13.885Z,17.93
2023-03-05T06:33:42.606Z,19.53
2023-03-05T06:36:12.262Z,18.93
2023-03-05T06:38:40.711Z,19.53
2023-03-05T06:41:11.670Z,19.63
2023-03-05T06:43:43.430Z,20.13
2023-03-05T06:46:14.763Z,18.63
2023-03-05T06:48:44.073Z,18.70
2023-03-05T06:51:16.557Z,19.23
2023-03-05T06:53:45.995Z,18.23
2023-03-05T06:56:16.858Z,16.20
2023-03-05T06:58:48.205Z,16.03
2023-03-05T07:01:17.354Z,16.13
2023-03-05T07:03:46.095Z,16.13
2023-03-05T07:06:15.948Z,15.97
2023-03-05T07:08:45.882Z,16.40
2023-03-05T07:11:16.517Z,16.23
2023-03-05T07:13:47.817Z,15.80
2023-03-05T07:16:19.770Z,14.30
2023-03-05T07:18:50.982Z,14.73
2023-03-05T07:21:21.867Z,14.20
2023-03-05T07:23:50.679Z,14.23
2023-03-05T07:26:19.324Z,13.43
2023-03-05T07:28:49.125Z,13.70
2023-03-05T07:31:20.189Z,13.47
2023-03-05T07:33:49.304Z,13.10
2023-03-05T07:36:18.723Z,12.20
2023-03-05T07:38:47.332Z,14.10
2023-03-05T07:41:19.893Z,14.57
2023-03-05T07:43:51.508Z,14.10
2023-03-05T07:46:21.452Z,13.73
2023-03-05T07:48:49.797Z,13.40
2023-03-05T07:51:20.550Z,13.00
2023-03-05T07:53:50.381Z,13.23
2023-03-05T07:56:23.544Z,14.30
2023-03-05T07:58:53.510Z,14.93
2023-03-05T08:01:25.140Z,12.97
2023-03-05T08:03:53.554Z,14.20
2023-03-05T08:06:22.023Z,13.70
2023-03-05T08:08:50.519Z,13.80
2023-03-05T08:11:19.234Z,14.30
2023-03-05T08:13:47.702Z,14.10
2023-03-05T08:16:20.005Z,15.50
2023-03-05T08:18:49.294Z,13.70
2023-03-05T08:21:19.518Z,14.87
2023-03-05T08:23:48.065Z,13.57
2023-03-05T08:26:19.200Z,13.87
2023-03-05T08:28:47.704Z,14.13
2023-03-05T08:31:19.184Z,14.77
2023-03-05T08:33:47.728Z,14.80
2023-03-05T08:36:16.063Z,14.50
2023-03-05T08:38:44.836Z,14.33
2023-03-05T08:41:13.617Z,14.27
2023-03-05T08:43:42.049Z,14.67
2023-03-05T08:46:11.600Z,13.70
2023-03-05T08:48:41.566Z,13.60
2023-03-05T08:51:11.811Z,13.40
2023-03-05T08:53:40.420Z,13.97
2023-03-05T08:56:09.849Z,13.47
2023-03-05T08:58:38.563Z,12.93
2023-03-05T09:01:07.588Z,13.13
2023-03-05T09:03:36.241Z,13.57
2023-03-05T09:06:08.016Z,13.33
2023-03-05T09:08:36.781Z,13.95
2023-03-05T09:11:06.485Z,15.73
2023-03-05T09:13:35.385Z,13.83
2023-03-05T09:16:06.032Z,14.00
2023-03-05T09:18:36.758Z,13.00
2023-03-05T09:21:08.761Z,16.03
2023-03-05T09:23:37.321Z,13.77
2023-03-05T09:26:07.089Z,13.87
2023-03-05T09:28:35.377Z,14.47
2023-03-05T09:31:06.232Z,15.20
2023-03-05T09:33:34.823Z,14.00
2023-03-05T09:36:04.585Z,13.07
2023-03-05T09:38:36.586Z,13.50
2023-03-05T09:41:08.215Z,13.07
2023-03-05T09:43:45.709Z,13.90
2023-03-05T09:46:28.428Z,14.70
2023-03-05T09:49:06.321Z,13.37
2023-03-05T09:51:39.444Z,13.23
2023-03-05T09:54:14.964Z,12.13
2023-03-05T09:56:46.653Z,11.23
2023-03-05T09:59:30.854Z,12.77
2023-03-05T10:02:02.714Z,13.10
2023-03-05T10:04:42.495Z,12.67
2023-03-05T10:07:18.482Z,12.97
2023-03-05T10:10:00.329Z,12.97
2023-03-05T10:12:42.551Z,12.50
2023-03-05T10:15:14.784Z,13.03
2023-03-05T10:18:06.893Z,13.67
2023-03-05T10:20:49.552Z,12.87
2023-03-05T10:23:30.581Z,12.40
2023-03-05T10:26:13.954Z,13.07
2023-03-05T10:28:49.980Z,12.57
2023-03-05T10:31:38.488Z,11.50
2023-03-05T10:34:25.698Z,12.47
2023-03-05T10:37:04.000Z,12.70
2023-03-05T10:39:53.484Z,12.07
2023-03-05T10:42:31.312Z,11.77
2023-03-05T10:45:02.075Z,11.40
2023-03-05T10:47:36.215Z,12.73
2023-03-05T10:50:17.180Z,12.50
2023-03-05T10:52:48.725Z,12.07
2023-03-05T10:55:18.716Z,12.83
2023-03-05T10:57:48.686Z,12.17
2023-03-05T11:00:22.545Z,10.87
2023-03-05T11:03:00.618Z,11.20
2023-03-05T11:05:43.477Z,11.80
2023-03-05T11:08:26.673Z,10.40
2023-03-05T11:11:14.346Z,11.60
2023-03-05T11:14:03.864Z,10.13
2023-03-05T11:16:34.159Z,10.73
2023-03-05T11:19:20.973Z,11.37
2023-03-05T11:22:06.335Z,10.17
2023-03-05T11:24:34.976Z,10.43
2023-03-05T11:27:06.040Z,10.20
2023-03-05T11:29:36.352Z,11.33
2023-03-05T11:32:21.315Z,10.37
2023-03-05T11:34:51.360Z,10.03
2023-03-05T11:37:26.697Z,10.87
2023-03-05T11:40:19.293Z,10.53
2023-03-05T11:42:55.577Z,11.23
2023-03-05T11:45:27.505Z,11.07
2023-03-05T11:48:09.377Z,10.63
2023-03-05T11:50:42.201Z,9.80
2023-03-05T11:53:16.312Z,11.00
2023-03-05T11:55:47.121Z,10.67
2023-03-05T11:58:30.707Z,11.37
2023-03-05T12:01:02.592Z,10.20
2023-03-05T12:03:34.622Z,11.00
2023-03-05T12:06:10.086Z,11.13
2023-03-05T12:08:42.823Z,11.53
2023-03-05T12:11:18.266Z,10.93
2023-03-05T12:13:49.486Z,11.27
2023-03-05T12:16:27.444Z,12.43
2023-03-05T12:19:06.150Z,11.63
2023-03-05T12:21:37.929Z,11.43
2023-03-05T12:24:40.891Z,12.00
2023-03-05T12:27:23.466Z,12.07
2023-03-05T12:29:53.112Z,11.77
2023-03-05T12:33:02.430Z,9.97
2023-03-05T12:35:41.897Z,11.23
2023-03-05T12:38:32.221Z,10.03
2023-03-05T12:41:35.808Z,11.03
2023-03-05T12:44:23.782Z,12.20
2023-03-05T12:47:23.765Z,11.70
2023-03-05T12:49:53.992Z,11.90
2023-03-05T12:52:29.900Z,11.40
2023-03-05T12:55:24.021Z,11.37
2023-03-05T12:57:58.617Z,12.40
2023-03-05T13:00:33.988Z,11.77
2023-03-05T13:03:09.126Z,12.03
2023-03-05T13:06:05.591Z,12.27
2023-03-05T13:08:37.438Z,12.37
2023-03-05T13:11:09.580Z,13.03
2023-03-05T13:13:42.643Z,12.40
2023-03-05T13:16:19.864Z,12.23
2023-03-05T13:18:49.942Z,12.53
2023-03-05T13:21:19.631Z,12.70
2023-03-05T13:23:57.925Z,14.20
2023-03-05T13:26:27.606Z,11.80
2023-03-05T13:29:11.593Z,13.03
2023-03-05T13:31:45.120Z,13.00
2023-03-05T13:34:18.908Z,14.27
2023-03-05T13:36:56.846Z,12.53
2023-03-05T13:39:29.574Z,13.63
2023-03-05T13:42:04.320Z,14.13
2023-03-05T13:44:34.796Z,15.07
2023-03-05T13:47:19.203Z,14.57
2023-03-05T13:49:48.438Z,13.93
2023-03-05T13:52:25.528Z,13.80
2023-03-05T13:54:55.275Z,14.97
2023-03-05T13:57:39.019Z,13.37
2023-03-05T14:00:09.306Z,13.23
2023-03-05T14:02:45.044Z,14.33
2023-03-05T14:05:16.610Z,13.47
2023-03-05T14:07:48.090Z,12.83
2023-03-05T14:10:32.902Z,13.93
2023-03-05T14:13:03.830Z,12.97
2023-03-05T14:15:33.673Z,13.10
2023-03-05T14:18:19.122Z,13.53
2023-03-05T14:21:03.754Z,13.40
2023-03-05T14:23:43.073Z,12.87
2023-03-05T14:26:29.625Z,13.67
2023-03-05T14:29:04.000Z,13.80
2023-03-05T14:31:36.578Z,14.13
2023-03-05T14:34:07.350Z,14.07
2023-03-05T14:36:36.399Z,13.87
2023-03-05T14:39:05.921Z,15.43
2023-03-05T14:41:40.992Z,14.50
2023-03-05T14:44:17.204Z,15.13
2023-03-05T14:46:50.032Z,14.13
2023-03-05T14:49:18.906Z,14.53
2023-03-05T14:51:48.441Z,16.53
2023-03-05T14:54:22.423Z,14.47
2023-03-05T14:56:52.305Z,13.80
2023-03-05T14:59:21.818Z,14.53
2023-03-05T15:01:51.332Z,15.63
2023-03-05T15:04:20.255Z,13.93
2023-03-05T15:06:51.258Z,13.67
2023-03-05T15:09:21.361Z,13.90
2023-03-05T15:11:51.504Z,14.53
2023-03-05T15:14:22.804Z,14.00
2023-03-05T15:16:51.205Z,13.93
2023-03-05T15:19:19.899Z,13.67
2023-03-05T15:21:48.175Z,17.37
2023-03-05T15:24:18.238Z,16.17
2023-03-05T15:26:47.766Z,17.43
2023-03-05T15:29:19.009Z,19.20
2023-03-05T15:31:47.370Z,31.37
2023-03-05T15:34:15.709Z,18.97
2023-03-05T15:36:44.099Z,16.87
2023-03-05T15:39:12.496Z,16.27
2023-03-05T15:41:40.840Z,24.47
2023-03-05T15:44:09.342Z,26.73
2023-03-05T15:46:39.121Z,31.50
2023-03-05T15:49:07.477Z,30.97
2023-03-05T15:51:35.941Z,28.20
2023-03-05T15:54:04.527Z,37.77
2023-03-05T15:56:32.961Z,33.30
2023-03-05T15:59:01.406Z,45.93
2023-03-05T16:01:29.764Z,53.97
2023-03-05T16:03:59.619Z,41.77
2023-03-05T16:06:27.979Z,33.80
2023-03-05T16:09:00.603Z,28.97
2023-03-05T16:11:29.878Z,30.20
2023-03-05T16:14:00.337Z,34.77
2023-03-05T16:16:28.947Z,28.37
2023-03-05T16:19:00.216Z,20.53
2023-03-05T16:21:28.717Z,20.03
2023-03-05T16:23:57.255Z,20.93
2023-03-05T16:26:25.618Z,19.80
2023-03-05T16:28:54.544Z,21.03
2023-03-05T16:31:22.876Z,20.20
2023-03-05T16:33:51.207Z,18.53
2023-03-05T16:36:24.324Z,19.47
2023-03-05T16:38:54.554Z,17.70
2023-03-05T16:41:24.385Z,19.97
2023-03-05T16:43:53.670Z,19.40
2023-03-05T16:46:22.303Z,19.60
2023-03-05T16:48:50.884Z,19.90
2023-03-05T16:51:20.820Z,20.10
2023-03-05T16:53:51.130Z,18.97
2023-03-05T16:56:19.615Z,19.30
2023-03-05T16:58:48.484Z,21.47
2023-03-05T17:01:20.627Z,21.63
2023-03-05T17:03:49.452Z,19.00
2023-03-05T17:06:20.197Z,19.30
2023-03-05T17:08:51.135Z,19.90
2023-03-05T17:11:20.055Z,19.80
2023-03-05T17:13:49.069Z,20.13
2023-03-05T17:16:20.194Z,19.13
2023-03-05T17:18:48.775Z,21.23
2023-03-05T17:21:17.755Z,19.43
2023-03-05T17:23:46.213Z,21.43
2023-03-05T17:26:19.010Z,46.13
2023-03-05T17:28:47.862Z,43.50
2023-03-05T17:31:16.670Z,40.87
2023-03-05T17:33:45.294Z,40.27
2023-03-05T17:36:18.346Z,31.90
2023-03-05T17:38:47.688Z,33.83
2023-03-05T17:41:19.058Z,29.03
2023-03-05T17:43:47.434Z,28.20
2023-03-05T17:46:18.904Z,27.97
2023-03-05T17:48:47.268Z,29.70
2023-03-05T17:51:19.457Z,29.20
2023-03-05T17:53:48.244Z,29.37
2023-03-05T17:56:23.678Z,30.03
2023-03-05T17:58:54.628Z,31.33
2023-03-05T18:01:27.543Z,34.27
2023-03-05T18:03:56.324Z,35.37
2023-03-05T18:06:24.957Z,32.30
2023-03-05T18:08:53.402Z,34.33
2023-03-05T18:11:23.176Z,36.37
2023-03-05T18:13:51.559Z,36.37
2023-03-05T18:16:19.949Z,38.23
2023-03-05T18:18:48.276Z,40.27
2023-03-05T18:21:20.747Z,38.83
2023-03-05T18:23:49.650Z,40.30
2023-03-05T18:26:18.678Z,41.97
2023-03-05T18:28:48.614Z,40.97
2023-03-05T18:31:16.933Z,44.40
2023-03-05T18:33:45.344Z,44.07
2023-03-05T18:36:14.620Z,42.37
2023-03-05T18:38:43.007Z,42.47
2023-03-05T18:41:19.465Z,42.97
2023-03-05T18:43:50.559Z,42.40
2023-03-05T18:46:19.459Z,46.70
2023-03-05T18:48:48.233Z,44.70
2023-03-05T18:51:18.252Z,43.47
2023-03-05T18:53:46.738Z,43.17
2023-03-05T18:56:15.416Z,41.73
2023-03-05T18:58:47.672Z,40.63
2023-03-05T19:01:19.156Z,37.43
2023-03-05T19:03:49.123Z,35.53
2023-03-05T19:06:17.874Z,35.83
2023-03-05T19:08:47.183Z,37.50
2023-03-05T19:11:17.002Z,36.37
2023-03-05T19:13:50.240Z,34.93
2023-03-05T19:16:21.296Z,40.78
2023-03-05T19:19:26.266Z,36.47
2023-03-05T19:21:56.762Z,35.07
2023-03-05T19:24:28.102Z,37.17
2023-03-05T19:27:00.307Z,35.60
2023-03-05T19:29:32.998Z,39.43
2023-03-05T19:32:02.944Z,37.10
2023-03-05T19:34:32.116Z,37.63
2023-03-05T19:37:00.565Z,35.57
2023-03-05T19:39:28.965Z,36.60
2023-03-05T19:41:57.235Z,36.73
2023-03-05T19:44:25.619Z,33.03
2023-03-05T19:46:56.437Z,34.10
2023-03-05T19:49:26.520Z,31.53
2023-03-05T19:51:54.957Z,29.93
2023-03-05T19:54:24.578Z,30.90
2023-03-05T19:56:54.902Z,30.10
2023-03-05T19:59:25.046Z,29.73
2023-03-05T20:01:57.517Z,30.37
2023-03-05T20:04:28.080Z,29.93
2023-03-05T20:06:56.447Z,29.57
2023-03-05T20:09:26.266Z,29.93
2023-03-05T20:11:54.546Z,30.20
2023-03-05T20:14:22.855Z,30.40
2023-03-05T20:16:51.767Z,30.40
2023-03-05T20:19:21.934Z,28.93
2023-03-05T20:21:51.974Z,28.30
2023-03-05T20:24:21.002Z,26.67
2023-03-05T20:26:51.021Z,26.37
2023-03-05T20:29:19.743Z,26.07
2023-03-05T20:31:50.152Z,24.70
2023-03-05T20:34:21.579Z,26.60
2023-03-05T20:36:51.328Z,23.80
2023-03-05T20:39:19.644Z,23.90
2023-03-05T20:41:48.661Z,19.73
2023-03-05T20:44:16.970Z,21.63
2023-03-05T20:47:09.989Z,20.60
2023-03-05T20:49:38.361Z,21.23
2023-03-05T20:52:08.310Z,20.90
2023-03-05T20:54:36.896Z,21.13
2023-03-05T20:57:05.450Z,20.67
2023-03-05T20:59:33.866Z,18.03
2023-03-05T21:02:02.287Z,19.67
2023-03-05T21:04:30.615Z,18.03
2023-03-05T21:06:59.032Z,17.60
2023-03-05T21:09:29.471Z,18.33
2023-03-05T21:11:57.810Z,16.53
2023-03-05T21:14:26.223Z,17.77
2023-03-05T21:16:54.552Z,16.10
2023-03-05T21:19:26.066Z,15.17
2023-03-05T21:21:54.430Z,15.90
2023-03-05T21:24:53.918Z,13.13
2023-03-05T21:27:22.417Z,12.97
2023-03-05T21:29:51.762Z,14.70
2023-03-05T21:32:20.641Z,12.57
2023-03-05T21:34:49.102Z,11.77
2023-03-05T21:37:17.632Z,10.27
2023-03-05T21:39:47.528Z,9.90
2023-03-05T21:42:15.917Z,9.83
2023-03-05T21:44:44.213Z,9.50
2023-03-05T21:47:14.421Z,9.57
2023-03-05T21:49:42.801Z,8.73
2023-03-05T21:52:13.221Z,9.07
2023-03-05T21:54:42.507Z,9.57
2023-03-05T21:57:13.201Z,9.27
2023-03-05T21:59:42.464Z,8.23
2023-03-05T22:02:13.136Z,8.40
2023-03-05T22:04:41.742Z,9.13
2023-03-05T22:07:10.179Z,9.10
2023-03-05T22:09:38.456Z,9.07
2023-03-05T22:13:12.568Z,9.07
2023-03-05T22:15:46.291Z,8.53
2023-03-05T22:18:15.669Z,9.10
2023-03-05T22:20:44.344Z,10.07
2023-03-05T22:23:13.129Z,8.80
2023-03-05T22:25:41.722Z,9.17
2023-03-05T22:28:12.718Z,9.57
2023-03-05T22:30:44.889Z,8.67
2023-03-05T22:33:13.863Z,9.40
2023-03-05T22:35:43.277Z,8.87
2023-03-05T22:38:12.428Z,9.00
2023-03-05T22:40:44.047Z,8.43
2023-03-05T22:43:14.143Z,8.10
2023-03-05T22:45:42.662Z,8.33
2023-03-05T22:48:12.267Z,8.10
2023-03-05T22:50:42.282Z,8.30
2023-03-05T22:53:10.662Z,8.60
2023-03-05T22:55:41.014Z,8.23
2023-03-05T22:58:09.386Z,7.40
2023-03-05T23:00:43.079Z,6.63
2023-03-05T23:03:11.423Z,6.90
2023-03-05T23:05:40.828Z,7.00
2023-03-05T23:08:09.411Z,8.07
2023-03-05T23:10:38.209Z,7.33
2023-03-05T23:13:06.563Z,7.17
2023-03-05T23:15:36.617Z,6.97
2023-03-05T23:18:07.561Z,6.90
2023-03-05T23:20:38.004Z,6.50
2023-03-05T23:23:06.573Z,7.30
2023-03-05T23:25:36.757Z,6.33
2023-03-05T23:28:05.616Z,6.27
2023-03-05T23:30:37.276Z,6.43
2023-03-05T23:33:08.744Z,5.67
2023-03-05T23:35:39.201Z,6.57
2023-03-05T23:38:09.947Z,6.93
2023-03-05T23:40:41.586Z,6.27
2023-03-05T23:43:10.042Z,6.57
2023-03-05T23:45:38.736Z,7.50
2023-03-05T23:48:08.757Z,7.77
2023-03-05T23:50:39.847Z,7.20
2023-03-05T23:53:09.126Z,6.33
2023-03-05T23:55:40.918Z,6.63
2023-03-05T23:58:09.664Z,6.53
